sensor_id;sensor_type;location;lat;lon;timestamp;P1;durP1;ratioP1;P2;durP2;ratioP2
66485;SDS011;53303;47.476;8.084;2024-03-23T00:53:42;2.45;;;0.90;;
66485;SDS011;53303;47.476;8.084;2024-03-23T00:56:09;3.47;;;1.20;;
66485;SDS011;53303;47.476;8.084;2024-03-23T00:58:34;8.38;;;1.30;;
66485;SDS011;53303;47.476;8.084;2024-03-23T01:01:00;4.00;;;1.25;;
66485;SDS011;53303;47.476;8.084;2024-03-23T01:03:30;2.47;;;1.27;;
66485;SDS011;53303;47.476;8.084;2024-03-23T01:06:00;3.38;;;1.10;;
66485;SDS011;53303;47.476;8.084;2024-03-23T01:08:29;2.17;;;1.10;;
66485;SDS011;53303;47.476;8.084;2024-03-23T01:10:55;3.70;;;1.25;;
66485;SDS011;53303;47.476;8.084;2024-03-23T01:13:27;5.82;;;1.30;;
66485;SDS011;53303;47.476;8.084;2024-03-23T01:15:53;3.55;;;1.35;;
66485;SDS011;53303;47.476;8.084;2024-03-23T01:18:20;4.28;;;1.42;;
66485;SDS011;53303;47.476;8.084;2024-03-23T01:20:46;3.53;;;1.10;;
66485;SDS011;53303;47.476;8.084;2024-03-23T01:23:14;3.13;;;1.38;;
66485;SDS011;53303;47.476;8.084;2024-03-23T01:25:40;2.95;;;1.20;;
66485;SDS011;53303;47.476;8.084;2024-03-23T01:28:07;2.47;;;1.13;;
66485;SDS011;53303;47.476;8.084;2024-03-23T01:30:33;2.40;;;0.93;;
66485;SDS011;53303;47.476;8.084;2024-03-23T01:33:02;3.42;;;1.05;;
66485;SDS011;53303;47.476;8.084;2024-03-23T01:35:28;4.00;;;1.40;;
66485;SDS011;53303;47.476;8.084;2024-03-23T01:37:54;3.20;;;1.23;;
66485;SDS011;53303;47.476;8.084;2024-03-23T01:40:20;2.55;;;1.05;;
66485;SDS011;53303;47.476;8.084;2024-03-23T01:42:58;2.90;;;1.23;;
66485;SDS011;53303;47.476;8.084;2024-03-23T01:45:33;3.22;;;1.23;;
66485;SDS011;53303;47.476;8.084;2024-03-23T01:47:59;2.70;;;0.98;;
66485;SDS011;53303;47.476;8.084;2024-03-23T01:50:26;2.67;;;1.08;;
66485;SDS011;53303;47.476;8.084;2024-03-23T01:52:52;4.38;;;0.90;;
66485;SDS011;53303;47.476;8.084;2024-03-23T01:55:18;3.08;;;1.33;;
66485;SDS011;53303;47.476;8.084;2024-03-23T01:57:44;2.42;;;0.82;;
66485;SDS011;53303;47.476;8.084;2024-03-23T02:00:10;3.92;;;1.00;;
66485;SDS011;53303;47.476;8.084;2024-03-23T02:02:41;2.15;;;1.35;;
66485;SDS011;53303;47.476;8.084;2024-03-23T02:05:14;3.58;;;1.20;;
66485;SDS011;53303;47.476;8.084;2024-03-23T02:07:40;3.78;;;1.10;;
66485;SDS011;53303;47.476;8.084;2024-03-23T02:10:10;2.33;;;1.30;;
66485;SDS011;53303;47.476;8.084;2024-03-23T02:12:38;2.95;;;1.10;;
66485;SDS011;53303;47.476;8.084;2024-03-23T02:15:04;2.72;;;1.10;;
66485;SDS011;53303;47.476;8.084;2024-03-23T02:17:30;2.30;;;0.90;;
66485;SDS011;53303;47.476;8.084;2024-03-23T02:19:57;3.72;;;1.20;;
66485;SDS011;53303;47.476;8.084;2024-03-23T02:22:25;2.90;;;1.27;;
66485;SDS011;53303;47.476;8.084;2024-03-23T02:24:50;2.45;;;0.98;;
66485;SDS011;53303;47.476;8.084;2024-03-23T02:27:17;4.10;;;1.00;;
66485;SDS011;53303;47.476;8.084;2024-03-23T02:29:48;2.72;;;1.20;;
66485;SDS011;53303;47.476;8.084;2024-03-23T02:32:13;2.80;;;1.00;;
66485;SDS011;53303;47.476;8.084;2024-03-23T02:34:39;2.63;;;0.93;;
66485;SDS011;53303;47.476;8.084;2024-03-23T02:37:10;2.60;;;1.02;;
66485;SDS011;53303;47.476;8.084;2024-03-23T02:39:37;3.30;;;0.85;;
66485;SDS011;53303;47.476;8.084;2024-03-23T02:42:04;2.17;;;0.80;;
66485;SDS011;53303;47.476;8.084;2024-03-23T02:44:33;4.18;;;1.00;;
66485;SDS011;53303;47.476;8.084;2024-03-23T02:47:02;2.55;;;1.10;;
66485;SDS011;53303;47.476;8.084;2024-03-23T02:49:29;3.40;;;1.20;;
66485;SDS011;53303;47.476;8.084;2024-03-23T02:51:55;2.42;;;0.80;;
66485;SDS011;53303;47.476;8.084;2024-03-23T02:54:20;2.65;;;1.10;;
66485;SDS011;53303;47.476;8.084;2024-03-23T02:56:46;2.17;;;0.70;;
66485;SDS011;53303;47.476;8.084;2024-03-23T02:59:13;2.75;;;1.10;;
66485;SDS011;53303;47.476;8.084;2024-03-23T03:01:41;4.18;;;1.15;;
66485;SDS011;53303;47.476;8.084;2024-03-23T03:04:09;2.15;;;1.10;;
66485;SDS011;53303;47.476;8.084;2024-03-23T03:06:34;3.05;;;1.10;;
66485;SDS011;53303;47.476;8.084;2024-03-23T03:09:00;4.07;;;1.40;;
66485;SDS011;53303;47.476;8.084;2024-03-23T03:11:25;2.25;;;1.20;;
66485;SDS011;53303;47.476;8.084;2024-03-23T03:13:50;1.83;;;0.80;;
66485;SDS011;53303;47.476;8.084;2024-03-23T03:16:16;2.80;;;1.00;;
66485;SDS011;53303;47.476;8.084;2024-03-23T03:18:44;1.80;;;1.00;;
66485;SDS011;53303;47.476;8.084;2024-03-23T03:21:11;4.00;;;1.20;;
66485;SDS011;53303;47.476;8.084;2024-03-23T03:23:39;2.85;;;0.95;;
66485;SDS011;53303;47.476;8.084;2024-03-23T03:26:05;2.85;;;0.90;;
66485;SDS011;53303;47.476;8.084;2024-03-23T03:28:35;2.70;;;1.20;;
66485;SDS011;53303;47.476;8.084;2024-03-23T03:31:01;2.10;;;1.25;;
66485;SDS011;53303;47.476;8.084;2024-03-23T03:33:29;1.77;;;1.08;;
66485;SDS011;53303;47.476;8.084;2024-03-23T03:35:54;2.95;;;1.25;;
66485;SDS011;53303;47.476;8.084;2024-03-23T03:38:22;5.28;;;1.42;;
66485;SDS011;53303;47.476;8.084;2024-03-23T03:40:47;2.65;;;1.20;;
66485;SDS011;53303;47.476;8.084;2024-03-23T03:43:15;3.92;;;1.05;;
66485;SDS011;53303;47.476;8.084;2024-03-23T03:45:55;2.95;;;1.08;;
66485;SDS011;53303;47.476;8.084;2024-03-23T03:48:24;2.83;;;1.30;;
66485;SDS011;53303;47.476;8.084;2024-03-23T03:50:53;3.22;;;1.10;;
66485;SDS011;53303;47.476;8.084;2024-03-23T03:53:19;3.50;;;1.48;;
66485;SDS011;53303;47.476;8.084;2024-03-23T03:55:45;2.17;;;1.20;;
66485;SDS011;53303;47.476;8.084;2024-03-23T03:58:17;2.55;;;1.20;;
66485;SDS011;53303;47.476;8.084;2024-03-23T04:00:42;2.47;;;1.17;;
66485;SDS011;53303;47.476;8.084;2024-03-23T04:03:11;2.45;;;1.08;;
66485;SDS011;53303;47.476;8.084;2024-03-23T04:05:36;3.70;;;0.90;;
66485;SDS011;53303;47.476;8.084;2024-03-23T04:08:02;2.85;;;0.93;;
66485;SDS011;53303;47.476;8.084;2024-03-23T04:10:33;2.85;;;1.10;;
66485;SDS011;53303;47.476;8.084;2024-03-23T04:12:58;5.95;;;1.15;;
66485;SDS011;53303;47.476;8.084;2024-03-23T04:15:24;3.95;;;0.93;;
66485;SDS011;53303;47.476;8.084;2024-03-23T04:17:51;3.35;;;0.80;;
66485;SDS011;53303;47.476;8.084;2024-03-23T04:20:21;2.60;;;0.70;;
66485;SDS011;53303;47.476;8.084;2024-03-23T04:22:47;2.55;;;1.30;;
66485;SDS011;53303;47.476;8.084;2024-03-23T04:25:13;2.75;;;1.00;;
66485;SDS011;53303;47.476;8.084;2024-03-23T04:27:40;4.30;;;1.23;;
66485;SDS011;53303;47.476;8.084;2024-03-23T04:30:07;3.80;;;1.20;;
66485;SDS011;53303;47.476;8.084;2024-03-23T04:32:39;2.60;;;0.77;;
66485;SDS011;53303;47.476;8.084;2024-03-23T04:35:05;5.28;;;1.30;;
66485;SDS011;53303;47.476;8.084;2024-03-23T04:37:31;4.47;;;1.17;;
66485;SDS011;53303;47.476;8.084;2024-03-23T04:40:03;5.72;;;1.33;;
66485;SDS011;53303;47.476;8.084;2024-03-23T04:42:31;4.35;;;1.33;;
66485;SDS011;53303;47.476;8.084;2024-03-23T04:45:01;2.53;;;1.10;;
66485;SDS011;53303;47.476;8.084;2024-03-23T04:49:56;3.73;;;1.30;;
66485;SDS011;53303;47.476;8.084;2024-03-23T04:52:21;3.97;;;1.20;;
66485;SDS011;53303;47.476;8.084;2024-03-23T04:54:48;3.28;;;1.10;;
66485;SDS011;53303;47.476;8.084;2024-03-23T04:57:14;3.13;;;1.30;;
66485;SDS011;53303;47.476;8.084;2024-03-23T04:59:41;3.05;;;1.00;;
66485;SDS011;53303;47.476;8.084;2024-03-23T05:02:06;5.43;;;1.00;;
66485;SDS011;53303;47.476;8.084;2024-03-23T05:04:37;3.35;;;1.15;;
66485;SDS011;53303;47.476;8.084;2024-03-23T05:07:02;4.30;;;1.50;;
66485;SDS011;53303;47.476;8.084;2024-03-23T05:09:30;2.05;;;1.10;;
66485;SDS011;53303;47.476;8.084;2024-03-23T05:11:56;1.77;;;1.00;;
66485;SDS011;53303;47.476;8.084;2024-03-23T05:14:22;2.95;;;1.00;;
66485;SDS011;53303;47.476;8.084;2024-03-23T05:16:52;3.85;;;1.50;;
66485;SDS011;53303;47.476;8.084;2024-03-23T05:19:18;4.55;;;0.98;;
66485;SDS011;53303;47.476;8.084;2024-03-23T05:21:43;3.75;;;1.30;;
66485;SDS011;53303;47.476;8.084;2024-03-23T05:24:11;2.83;;;1.10;;
66485;SDS011;53303;47.476;8.084;2024-03-23T05:26:37;2.53;;;1.10;;
66485;SDS011;53303;47.476;8.084;2024-03-23T05:29:07;3.22;;;1.08;;
66485;SDS011;53303;47.476;8.084;2024-03-23T05:31:36;3.45;;;1.17;;
66485;SDS011;53303;47.476;8.084;2024-03-23T05:34:04;2.58;;;1.33;;
66485;SDS011;53303;47.476;8.084;2024-03-23T05:36:29;2.40;;;1.10;;
66485;SDS011;53303;47.476;8.084;2024-03-23T05:38:56;1.75;;;1.10;;
66485;SDS011;53303;47.476;8.084;2024-03-23T05:41:21;4.18;;;1.10;;
66485;SDS011;53303;47.476;8.084;2024-03-23T05:43:49;2.42;;;1.15;;
66485;SDS011;53303;47.476;8.084;2024-03-23T05:46:14;2.75;;;1.17;;
66485;SDS011;53303;47.476;8.084;2024-03-23T05:48:39;3.78;;;1.05;;
66485;SDS011;53303;47.476;8.084;2024-03-23T05:51:05;3.42;;;1.10;;
66485;SDS011;53303;47.476;8.084;2024-03-23T05:53:30;2.55;;;1.35;;
66485;SDS011;53303;47.476;8.084;2024-03-23T05:56:01;3.45;;;1.15;;
66485;SDS011;53303;47.476;8.084;2024-03-23T05:58:32;2.75;;;1.00;;
66485;SDS011;53303;47.476;8.084;2024-03-23T06:01:01;5.20;;;1.38;;
66485;SDS011;53303;47.476;8.084;2024-03-23T06:03:30;3.45;;;1.50;;
66485;SDS011;53303;47.476;8.084;2024-03-23T06:05:56;4.63;;;1.40;;
66485;SDS011;53303;47.476;8.084;2024-03-23T06:08:22;2.38;;;1.17;;
66485;SDS011;53303;47.476;8.084;2024-03-23T06:10:47;5.25;;;1.42;;
66485;SDS011;53303;47.476;8.084;2024-03-23T06:13:16;3.47;;;1.55;;
66485;SDS011;53303;47.476;8.084;2024-03-23T06:15:45;3.13;;;1.10;;
66485;SDS011;53303;47.476;8.084;2024-03-23T06:18:11;2.72;;;0.85;;
66485;SDS011;53303;47.476;8.084;2024-03-23T06:20:39;3.38;;;1.10;;
66485;SDS011;53303;47.476;8.084;2024-03-23T06:23:06;2.63;;;1.10;;
66485;SDS011;53303;47.476;8.084;2024-03-23T06:25:36;4.00;;;1.27;;
66485;SDS011;53303;47.476;8.084;2024-03-23T06:28:01;2.70;;;0.90;;
66485;SDS011;53303;47.476;8.084;2024-03-23T06:30:28;2.17;;;0.95;;
66485;SDS011;53303;47.476;8.084;2024-03-23T06:32:54;3.72;;;1.30;;
66485;SDS011;53303;47.476;8.084;2024-03-23T06:35:22;3.20;;;1.40;;
66485;SDS011;53303;47.476;8.084;2024-03-23T06:37:47;3.10;;;0.80;;
66485;SDS011;53303;47.476;8.084;2024-03-23T06:40:14;1.60;;;1.10;;
66485;SDS011;53303;47.476;8.084;2024-03-23T06:42:40;3.45;;;1.10;;
66485;SDS011;53303;47.476;8.084;2024-03-23T06:45:07;3.10;;;1.02;;
66485;SDS011;53303;47.476;8.084;2024-03-23T06:47:36;2.75;;;0.90;;
66485;SDS011;53303;47.476;8.084;2024-03-23T06:50:02;3.33;;;1.27;;
66485;SDS011;53303;47.476;8.084;2024-03-23T06:52:28;2.63;;;0.88;;
66485;SDS011;53303;47.476;8.084;2024-03-23T06:54:54;3.47;;;1.13;;
66485;SDS011;53303;47.476;8.084;2024-03-23T06:57:19;4.13;;;1.13;;
66485;SDS011;53303;47.476;8.084;2024-03-23T06:59:45;2.53;;;1.20;;
66485;SDS011;53303;47.476;8.084;2024-03-23T07:02:13;4.22;;;1.10;;
66485;SDS011;53303;47.476;8.084;2024-03-23T07:04:39;3.47;;;1.30;;
66485;SDS011;53303;47.476;8.084;2024-03-23T07:07:07;3.33;;;1.10;;
66485;SDS011;53303;47.476;8.084;2024-03-23T07:09:35;3.72;;;1.40;;
66485;SDS011;53303;47.476;8.084;2024-03-23T07:12:00;5.57;;;1.50;;
66485;SDS011;53303;47.476;8.084;2024-03-23T07:14:25;7.55;;;1.55;;
66485;SDS011;53303;47.476;8.084;2024-03-23T07:16:51;4.68;;;1.63;;
66485;SDS011;53303;47.476;8.084;2024-03-23T07:19:17;4.38;;;1.45;;
66485;SDS011;53303;47.476;8.084;2024-03-23T07:21:49;12.07;;;2.70;;
66485;SDS011;53303;47.476;8.084;2024-03-23T07:24:17;14.57;;;2.25;;
66485;SDS011;53303;47.476;8.084;2024-03-23T07:26:44;12.05;;;2.05;;
66485;SDS011;53303;47.476;8.084;2024-03-23T07:29:10;8.90;;;2.05;;
66485;SDS011;53303;47.476;8.084;2024-03-23T07:31:35;7.70;;;1.83;;
66485;SDS011;53303;47.476;8.084;2024-03-23T07:34:03;7.40;;;2.15;;
66485;SDS011;53303;47.476;8.084;2024-03-23T07:36:30;7.65;;;1.70;;
66485;SDS011;53303;47.476;8.084;2024-03-23T07:38:56;9.43;;;1.90;;
66485;SDS011;53303;47.476;8.084;2024-03-23T07:41:21;6.95;;;1.60;;
66485;SDS011;53303;47.476;8.084;2024-03-23T07:43:48;8.82;;;1.70;;
66485;SDS011;53303;47.476;8.084;2024-03-23T07:46:14;6.35;;;1.65;;
66485;SDS011;53303;47.476;8.084;2024-03-23T07:48:40;7.60;;;1.60;;
66485;SDS011;53303;47.476;8.084;2024-03-23T07:51:09;4.95;;;1.50;;
66485;SDS011;53303;47.476;8.084;2024-03-23T07:53:35;7.25;;;1.60;;
66485;SDS011;53303;47.476;8.084;2024-03-23T07:56:10;5.20;;;1.38;;
66485;SDS011;53303;47.476;8.084;2024-03-23T07:58:36;6.18;;;1.70;;
66485;SDS011;53303;47.476;8.084;2024-03-23T08:03:34;5.65;;;1.40;;
66485;SDS011;53303;47.476;8.084;2024-03-23T08:06:16;7.55;;;1.40;;
66485;SDS011;53303;47.476;8.084;2024-03-23T08:08:45;5.20;;;1.58;;
66485;SDS011;53303;47.476;8.084;2024-03-23T08:11:14;7.03;;;1.40;;
66485;SDS011;53303;47.476;8.084;2024-03-23T08:13:40;6.78;;;1.50;;
66485;SDS011;53303;47.476;8.084;2024-03-23T08:16:10;5.60;;;1.38;;
66485;SDS011;53303;47.476;8.084;2024-03-23T08:18:35;5.35;;;1.50;;
66485;SDS011;53303;47.476;8.084;2024-03-23T08:21:04;7.70;;;1.52;;
66485;SDS011;53303;47.476;8.084;2024-03-23T08:23:34;5.70;;;1.42;;
66485;SDS011;53303;47.476;8.084;2024-03-23T08:26:05;5.20;;;1.60;;
66485;SDS011;53303;47.476;8.084;2024-03-23T08:28:34;5.20;;;1.25;;
66485;SDS011;53303;47.476;8.084;2024-03-23T08:31:01;3.60;;;1.40;;
66485;SDS011;53303;47.476;8.084;2024-03-23T08:33:28;6.00;;;1.60;;
66485;SDS011;53303;47.476;8.084;2024-03-23T08:35:54;6.18;;;1.38;;
66485;SDS011;53303;47.476;8.084;2024-03-23T08:38:22;4.35;;;1.58;;
66485;SDS011;53303;47.476;8.084;2024-03-23T08:41:05;6.40;;;1.70;;
66485;SDS011;53303;47.476;8.084;2024-03-23T08:43:33;3.30;;;1.13;;
66485;SDS011;53303;47.476;8.084;2024-03-23T08:46:05;4.70;;;1.17;;
66485;SDS011;53303;47.476;8.084;2024-03-23T08:48:38;5.70;;;1.60;;
66485;SDS011;53303;47.476;8.084;2024-03-23T08:51:11;5.75;;;1.27;;
66485;SDS011;53303;47.476;8.084;2024-03-23T08:53:37;3.65;;;0.88;;
66485;SDS011;53303;47.476;8.084;2024-03-23T08:56:04;6.40;;;1.67;;
66485;SDS011;53303;47.476;8.084;2024-03-23T08:58:31;5.38;;;1.25;;
66485;SDS011;53303;47.476;8.084;2024-03-23T09:01:03;4.65;;;1.20;;
66485;SDS011;53303;47.476;8.084;2024-03-23T09:03:34;4.32;;;1.42;;
66485;SDS011;53303;47.476;8.084;2024-03-23T09:06:02;6.07;;;1.50;;
66485;SDS011;53303;47.476;8.084;2024-03-23T09:08:35;5.40;;;1.27;;
66485;SDS011;53303;47.476;8.084;2024-03-23T09:11:08;4.07;;;1.40;;
66485;SDS011;53303;47.476;8.084;2024-03-23T09:13:37;5.85;;;1.10;;
66485;SDS011;53303;47.476;8.084;2024-03-23T09:16:06;5.20;;;1.42;;
66485;SDS011;53303;47.476;8.084;2024-03-23T09:18:35;4.00;;;1.45;;
66485;SDS011;53303;47.476;8.084;2024-03-23T09:21:04;4.97;;;1.25;;
66485;SDS011;53303;47.476;8.084;2024-03-23T09:23:39;3.80;;;1.17;;
66485;SDS011;53303;47.476;8.084;2024-03-23T09:26:04;3.45;;;1.20;;
66485;SDS011;53303;47.476;8.084;2024-03-23T09:28:32;4.07;;;1.20;;
66485;SDS011;53303;47.476;8.084;2024-03-23T09:33:29;4.20;;;1.08;;
66485;SDS011;53303;47.476;8.084;2024-03-23T09:35:55;5.78;;;1.15;;
66485;SDS011;53303;47.476;8.084;2024-03-23T09:38:21;4.18;;;1.40;;
66485;SDS011;53303;47.476;8.084;2024-03-23T09:40:52;3.47;;;1.15;;
66485;SDS011;53303;47.476;8.084;2024-03-23T09:43:18;3.38;;;1.38;;
66485;SDS011;53303;47.476;8.084;2024-03-23T09:45:44;5.28;;;1.20;;
66485;SDS011;53303;47.476;8.084;2024-03-23T09:48:13;6.40;;;1.23;;
66485;SDS011;53303;47.476;8.084;2024-03-23T09:50:39;6.68;;;1.70;;
66485;SDS011;53303;47.476;8.084;2024-03-23T09:53:09;4.40;;;1.33;;
66485;SDS011;53303;47.476;8.084;2024-03-23T09:55:36;4.43;;;1.52;;
66485;SDS011;53303;47.476;8.084;2024-03-23T09:58:06;5.88;;;1.33;;
66485;SDS011;53303;47.476;8.084;2024-03-23T10:00:32;6.55;;;1.30;;
66485;SDS011;53303;47.476;8.084;2024-03-23T10:03:00;6.63;;;1.35;;
66485;SDS011;53303;47.476;8.084;2024-03-23T10:05:29;8.75;;;1.77;;
66485;SDS011;53303;47.476;8.084;2024-03-23T10:10:43;3.92;;;1.10;;
66485;SDS011;53303;47.476;8.084;2024-03-23T10:13:11;4.28;;;1.30;;
66485;SDS011;53303;47.476;8.084;2024-03-23T10:15:50;8.57;;;1.52;;
66485;SDS011;53303;47.476;8.084;2024-03-23T10:18:20;4.15;;;1.10;;
66485;SDS011;53303;47.476;8.084;2024-03-23T10:23:30;7.00;;;1.50;;
66485;SDS011;53303;47.476;8.084;2024-03-23T10:26:17;4.40;;;1.60;;
66485;SDS011;53303;47.476;8.084;2024-03-23T10:28:53;4.63;;;1.65;;
66485;SDS011;53303;47.476;8.084;2024-03-23T10:31:26;5.68;;;1.20;;
66485;SDS011;53303;47.476;8.084;2024-03-23T10:33:55;5.20;;;1.40;;
66485;SDS011;53303;47.476;8.084;2024-03-23T10:36:23;3.83;;;1.20;;
66485;SDS011;53303;47.476;8.084;2024-03-23T10:38:52;3.35;;;1.20;;
66485;SDS011;53303;47.476;8.084;2024-03-23T10:41:19;3.55;;;1.00;;
66485;SDS011;53303;47.476;8.084;2024-03-23T10:43:45;4.60;;;1.50;;
66485;SDS011;53303;47.476;8.084;2024-03-23T10:46:12;3.45;;;1.10;;
66485;SDS011;53303;47.476;8.084;2024-03-23T10:48:38;5.15;;;1.30;;
66485;SDS011;53303;47.476;8.084;2024-03-23T10:51:06;4.90;;;1.60;;
66485;SDS011;53303;47.476;8.084;2024-03-23T10:53:33;5.55;;;1.13;;
66485;SDS011;53303;47.476;8.084;2024-03-23T10:56:01;2.97;;;0.90;;
66485;SDS011;53303;47.476;8.084;2024-03-23T11:01:06;4.10;;;1.33;;
66485;SDS011;53303;47.476;8.084;2024-03-23T11:03:38;4.45;;;1.15;;
66485;SDS011;53303;47.476;8.084;2024-03-23T11:06:06;4.03;;;1.30;;
66485;SDS011;53303;47.476;8.084;2024-03-23T11:08:38;3.10;;;0.82;;
66485;SDS011;53303;47.476;8.084;2024-03-23T11:13:41;3.22;;;1.17;;
66485;SDS011;53303;47.476;8.084;2024-03-23T11:16:13;5.10;;;1.52;;
66485;SDS011;53303;47.476;8.084;2024-03-23T11:18:39;3.28;;;0.95;;
66485;SDS011;53303;47.476;8.084;2024-03-23T11:21:06;5.13;;;1.15;;
66485;SDS011;53303;47.476;8.084;2024-03-23T11:23:32;5.82;;;1.15;;
66485;SDS011;53303;47.476;8.084;2024-03-23T11:25:57;5.75;;;1.33;;
66485;SDS011;53303;47.476;8.084;2024-03-23T11:28:25;4.55;;;1.10;;
66485;SDS011;53303;47.476;8.084;2024-03-23T11:30:51;6.72;;;1.27;;
66485;SDS011;53303;47.476;8.084;2024-03-23T11:33:16;3.40;;;1.15;;
66485;SDS011;53303;47.476;8.084;2024-03-23T11:35:42;4.53;;;1.42;;
66485;SDS011;53303;47.476;8.084;2024-03-23T11:38:17;3.05;;;1.20;;
66485;SDS011;53303;47.476;8.084;2024-03-23T11:40:50;3.50;;;0.90;;
66485;SDS011;53303;47.476;8.084;2024-03-23T11:43:19;3.33;;;0.80;;
66485;SDS011;53303;47.476;8.084;2024-03-23T11:45:49;3.90;;;1.10;;
66485;SDS011;53303;47.476;8.084;2024-03-23T11:48:20;4.25;;;1.30;;
66485;SDS011;53303;47.476;8.084;2024-03-23T11:50:47;3.25;;;0.80;;
66485;SDS011;53303;47.476;8.084;2024-03-23T11:53:15;4.55;;;1.27;;
66485;SDS011;53303;47.476;8.084;2024-03-23T11:58:13;2.70;;;0.70;;
66485;SDS011;53303;47.476;8.084;2024-03-23T12:00:41;4.10;;;1.30;;
66485;SDS011;53303;47.476;8.084;2024-03-23T12:03:16;3.88;;;1.20;;
66485;SDS011;53303;47.476;8.084;2024-03-23T12:05:49;3.50;;;1.10;;
66485;SDS011;53303;47.476;8.084;2024-03-23T12:11:04;3.33;;;1.05;;
66485;SDS011;53303;47.476;8.084;2024-03-23T12:13:30;3.00;;;1.10;;
66485;SDS011;53303;47.476;8.084;2024-03-23T12:15:57;2.55;;;1.00;;
66485;SDS011;53303;47.476;8.084;2024-03-23T12:18:47;3.08;;;0.93;;
66485;SDS011;53303;47.476;8.084;2024-03-23T12:23:45;2.78;;;1.00;;
66485;SDS011;53303;47.476;8.084;2024-03-23T12:26:14;2.95;;;1.02;;
66485;SDS011;53303;47.476;8.084;2024-03-23T12:28:45;2.60;;;1.17;;
66485;SDS011;53303;47.476;8.084;2024-03-23T12:31:12;2.70;;;0.90;;
66485;SDS011;53303;47.476;8.084;2024-03-23T12:33:43;4.53;;;1.30;;
66485;SDS011;53303;47.476;8.084;2024-03-23T12:36:09;3.95;;;1.30;;
66485;SDS011;53303;47.476;8.084;2024-03-23T12:38:35;2.65;;;0.95;;
66485;SDS011;53303;47.476;8.084;2024-03-23T12:41:00;3.80;;;0.82;;
66485;SDS011;53303;47.476;8.084;2024-03-23T12:43:25;5.10;;;1.27;;
66485;SDS011;53303;47.476;8.084;2024-03-23T12:45:51;4.80;;;0.98;;
66485;SDS011;53303;47.476;8.084;2024-03-23T12:48:16;3.95;;;1.00;;
66485;SDS011;53303;47.476;8.084;2024-03-23T12:50:44;3.88;;;1.20;;
66485;SDS011;53303;47.476;8.084;2024-03-23T12:53:12;5.15;;;1.30;;
66485;SDS011;53303;47.476;8.084;2024-03-23T12:55:37;6.60;;;1.48;;
66485;SDS011;53303;47.476;8.084;2024-03-23T12:58:03;3.22;;;0.82;;
66485;SDS011;53303;47.476;8.084;2024-03-23T13:00:29;4.00;;;0.80;;
66485;SDS011;53303;47.476;8.084;2024-03-23T13:02:59;4.05;;;1.15;;
66485;SDS011;53303;47.476;8.084;2024-03-23T13:05:25;2.95;;;1.10;;
66485;SDS011;53303;47.476;8.084;2024-03-23T13:07:50;5.15;;;1.30;;
66485;SDS011;53303;47.476;8.084;2024-03-23T13:10:16;2.58;;;1.10;;
66485;SDS011;53303;47.476;8.084;2024-03-23T13:12:43;3.65;;;1.15;;
66485;SDS011;53303;47.476;8.084;2024-03-23T13:15:09;4.32;;;1.33;;
66485;SDS011;53303;47.476;8.084;2024-03-23T13:17:34;3.88;;;1.27;;
66485;SDS011;53303;47.476;8.084;2024-03-23T13:20:00;4.85;;;0.90;;
66485;SDS011;53303;47.476;8.084;2024-03-23T13:22:28;4.63;;;1.20;;
66485;SDS011;53303;47.476;8.084;2024-03-23T13:24:58;2.75;;;0.90;;
66485;SDS011;53303;47.476;8.084;2024-03-23T13:27:26;3.42;;;1.00;;
66485;SDS011;53303;47.476;8.084;2024-03-23T13:29:52;3.72;;;1.30;;
66485;SDS011;53303;47.476;8.084;2024-03-23T13:32:17;3.55;;;1.25;;
66485;SDS011;53303;47.476;8.084;2024-03-23T13:34:45;2.75;;;1.10;;
66485;SDS011;53303;47.476;8.084;2024-03-23T13:37:10;3.35;;;1.08;;
66485;SDS011;53303;47.476;8.084;2024-03-23T13:39:37;3.33;;;1.02;;
66485;SDS011;53303;47.476;8.084;2024-03-23T13:42:03;3.10;;;1.08;;
66485;SDS011;53303;47.476;8.084;2024-03-23T13:44:30;2.53;;;1.15;;
66485;SDS011;53303;47.476;8.084;2024-03-23T13:46:56;3.13;;;0.95;;
66485;SDS011;53303;47.476;8.084;2024-03-23T13:49:26;2.55;;;1.08;;
66485;SDS011;53303;47.476;8.084;2024-03-23T13:52:01;3.72;;;1.27;;
66485;SDS011;53303;47.476;8.084;2024-03-23T13:54:35;2.83;;;0.95;;
66485;SDS011;53303;47.476;8.084;2024-03-23T13:57:01;4.03;;;1.20;;
66485;SDS011;53303;47.476;8.084;2024-03-23T13:59:29;3.47;;;1.00;;
66485;SDS011;53303;47.476;8.084;2024-03-23T14:01:54;2.63;;;0.70;;
66485;SDS011;53303;47.476;8.084;2024-03-23T14:07:36;5.32;;;0.80;;
66485;SDS011;53303;47.476;8.084;2024-03-23T14:10:10;4.20;;;1.17;;
66485;SDS011;53303;47.476;8.084;2024-03-23T14:12:36;5.47;;;1.25;;
66485;SDS011;53303;47.476;8.084;2024-03-23T14:15:06;6.15;;;1.38;;
66485;SDS011;53303;47.476;8.084;2024-03-23T14:17:32;4.13;;;1.15;;
66485;SDS011;53303;47.476;8.084;2024-03-23T14:19:57;3.05;;;1.10;;
66485;SDS011;53303;47.476;8.084;2024-03-23T14:22:26;3.35;;;1.00;;
66485;SDS011;53303;47.476;8.084;2024-03-23T14:24:54;3.53;;;0.95;;
66485;SDS011;53303;47.476;8.084;2024-03-23T14:27:19;5.53;;;1.25;;
66485;SDS011;53303;47.476;8.084;2024-03-23T14:29:47;3.90;;;0.90;;
66485;SDS011;53303;47.476;8.084;2024-03-23T14:32:13;3.20;;;0.85;;
66485;SDS011;53303;47.476;8.084;2024-03-23T14:34:40;3.80;;;0.90;;
66485;SDS011;53303;47.476;8.084;2024-03-23T14:37:05;3.40;;;1.20;;
66485;SDS011;53303;47.476;8.084;2024-03-23T14:39:33;3.40;;;1.00;;
66485;SDS011;53303;47.476;8.084;2024-03-23T14:42:00;4.03;;;1.13;;
66485;SDS011;53303;47.476;8.084;2024-03-23T14:44:28;4.10;;;0.80;;
66485;SDS011;53303;47.476;8.084;2024-03-23T14:46:54;3.38;;;0.95;;
66485;SDS011;53303;47.476;8.084;2024-03-23T14:49:22;4.07;;;0.95;;
66485;SDS011;53303;47.476;8.084;2024-03-23T14:51:47;4.13;;;1.08;;
66485;SDS011;53303;47.476;8.084;2024-03-23T14:54:13;2.53;;;1.00;;
66485;SDS011;53303;47.476;8.084;2024-03-23T14:56:41;2.88;;;1.00;;
66485;SDS011;53303;47.476;8.084;2024-03-23T14:59:06;2.60;;;0.80;;
66485;SDS011;53303;47.476;8.084;2024-03-23T15:01:32;2.63;;;0.90;;
66485;SDS011;53303;47.476;8.084;2024-03-23T15:03:58;3.08;;;0.80;;
66485;SDS011;53303;47.476;8.084;2024-03-23T15:06:24;4.22;;;1.20;;
66485;SDS011;53303;47.476;8.084;2024-03-23T15:08:50;3.50;;;0.80;;
66485;SDS011;53303;47.476;8.084;2024-03-23T15:11:15;4.15;;;1.13;;
66485;SDS011;53303;47.476;8.084;2024-03-23T15:13:44;2.15;;;0.95;;
66485;SDS011;53303;47.476;8.084;2024-03-23T15:16:09;3.55;;;1.10;;
66485;SDS011;53303;47.476;8.084;2024-03-23T15:18:35;3.50;;;0.88;;
66485;SDS011;53303;47.476;8.084;2024-03-23T15:21:01;3.85;;;0.90;;
66485;SDS011;53303;47.476;8.084;2024-03-23T15:23:31;4.30;;;0.90;;
66485;SDS011;53303;47.476;8.084;2024-03-23T15:26:00;4.82;;;1.00;;
66485;SDS011;53303;47.476;8.084;2024-03-23T15:28:27;2.13;;;1.05;;
66485;SDS011;53303;47.476;8.084;2024-03-23T15:31:14;5.07;;;1.20;;
66485;SDS011;53303;47.476;8.084;2024-03-23T15:33:44;5.75;;;1.10;;
66485;SDS011;53303;47.476;8.084;2024-03-23T15:36:09;3.25;;;0.80;;
66485;SDS011;53303;47.476;8.084;2024-03-23T15:38:34;4.50;;;1.25;;
66485;SDS011;53303;47.476;8.084;2024-03-23T15:41:00;2.78;;;1.02;;
66485;SDS011;53303;47.476;8.084;2024-03-23T15:43:25;3.42;;;0.98;;
66485;SDS011;53303;47.476;8.084;2024-03-23T15:46:02;1.70;;;0.63;;
66485;SDS011;53303;47.476;8.084;2024-03-23T15:48:31;2.35;;;0.60;;
66485;SDS011;53303;47.476;8.084;2024-03-23T15:51:01;2.92;;;0.90;;
66485;SDS011;53303;47.476;8.084;2024-03-23T15:53:29;3.42;;;1.20;;
66485;SDS011;53303;47.476;8.084;2024-03-23T15:55:58;3.75;;;1.42;;
66485;SDS011;53303;47.476;8.084;2024-03-23T15:58:28;2.88;;;0.88;;
66485;SDS011;53303;47.476;8.084;2024-03-23T16:00:58;5.32;;;1.05;;
66485;SDS011;53303;47.476;8.084;2024-03-23T16:03:25;4.68;;;1.00;;
66485;SDS011;53303;47.476;8.084;2024-03-23T16:05:54;4.35;;;1.10;;
66485;SDS011;53303;47.476;8.084;2024-03-23T16:08:21;5.13;;;1.30;;
66485;SDS011;53303;47.476;8.084;2024-03-23T16:10:47;3.13;;;1.00;;
66485;SDS011;53303;47.476;8.084;2024-03-23T16:13:12;3.53;;;1.10;;